createdAt,value
2024-05-09T00:00:54.235Z,4.35
2024-05-09T00:03:47.038Z,4.60
2024-05-09T00:06:18.548Z,4.32
2024-05-09T00:08:50.247Z,4.60
2024-05-09T00:11:23.189Z,5.10
2024-05-09T00:13:54.333Z,4.10
2024-05-09T00:16:25.765Z,3.95
2024-05-09T00:18:56.851Z,4.00
2024-05-09T00:21:28.285Z,4.38
2024-05-09T00:23:59.280Z,4.40
2024-05-09T00:26:30.724Z,4.00
2024-05-09T00:29:01.869Z,4.07
2024-05-09T00:31:33.236Z,4.32
2024-05-09T00:34:04.420Z,4.40
2024-05-09T00:36:35.994Z,3.97
2024-05-09T00:39:07.047Z,3.40
2024-05-09T00:41:39.676Z,4.22
2024-05-09T00:44:11.142Z,4.57
2024-05-09T00:46:43.009Z,4.40
2024-05-09T00:49:15.985Z,4.10
2024-05-09T00:51:47.392Z,4.05
2024-05-09T00:54:20.092Z,4.15
2024-05-09T00:56:53.128Z,4.07
2024-05-09T00:59:24.661Z,4.25
2024-05-09T01:01:56.714Z,4.63
2024-05-09T01:04:27.877Z,4.05
2024-05-09T01:06:59.333Z,4.50
2024-05-09T01:09:30.469Z,4.55
2024-05-09T01:12:02.028Z,4.75
2024-05-09T01:14:33.256Z,5.03
2024-05-09T01:17:04.740Z,5.70
2024-05-09T01:19:36.546Z,5.63
2024-05-09T01:22:08.265Z,5.38
2024-05-09T01:24:39.227Z,4.60
2024-05-09T01:27:10.595Z,4.93
2024-05-09T01:29:41.536Z,4.65
2024-05-09T01:32:13.083Z,4.50
2024-05-09T01:34:44.255Z,5.10
2024-05-09T01:37:15.643Z,4.95
2024-05-09T01:39:46.548Z,4.63
2024-05-09T01:42:18.808Z,4.47
2024-05-09T01:44:49.739Z,5.03
2024-05-09T01:47:21.347Z,4.82
2024-05-09T01:49:52.451Z,4.45
2024-05-09T01:52:23.908Z,4.78
2024-05-09T01:54:54.899Z,4.75
2024-05-09T01:57:26.287Z,4.93
2024-05-09T01:59:57.296Z,4.65
2024-05-09T02:02:28.844Z,4.22
2024-05-09T02:05:00.056Z,4.50
2024-05-09T02:07:31.828Z,4.13
2024-05-09T02:10:06.591Z,4.20
2024-05-09T02:12:40.428Z,4.75
2024-05-09T02:15:11.693Z,4.38
2024-05-09T02:17:43.226Z,4.00
2024-05-09T02:20:22.542Z,3.63
2024-05-09T02:22:59.886Z,4.45
2024-05-09T02:25:30.975Z,4.13
2024-05-09T02:28:02.732Z,3.55
2024-05-09T02:30:39.675Z,3.85
2024-05-09T02:33:14.524Z,4.40
2024-05-09T02:35:46.569Z,3.78
2024-05-09T02:38:15.425Z,4.18
2024-05-09T02:40:46.517Z,4.05
2024-05-09T02:43:15.358Z,3.58
2024-05-09T02:45:46.352Z,4.07
2024-05-09T02:48:15.333Z,3.83
2024-05-09T02:50:46.620Z,3.55
2024-05-09T02:53:16.038Z,3.78
2024-05-09T02:55:47.218Z,4.07
2024-05-09T02:58:16.008Z,3.25
2024-05-09T03:00:46.953Z,3.58
2024-05-09T03:03:16.097Z,3.40
2024-05-09T03:05:48.238Z,4.50
2024-05-09T03:08:17.135Z,3.47
2024-05-09T03:10:48.053Z,3.88
2024-05-09T03:13:17.445Z,4.03
2024-05-09T03:15:48.820Z,3.10
2024-05-09T03:18:17.839Z,2.80
2024-05-09T03:20:49.152Z,3.33
2024-05-09T03:23:17.994Z,3.28
2024-05-09T03:25:49.005Z,3.55
2024-05-09T03:28:17.866Z,4.13
2024-05-09T03:30:49.100Z,3.10
2024-05-09T03:33:19.785Z,3.35
2024-05-09T03:35:52.437Z,3.63
2024-05-09T03:38:23.927Z,3.70
2024-05-09T03:40:55.654Z,3.15
2024-05-09T03:43:27.231Z,3.13
2024-05-09T03:45:58.219Z,2.97
2024-05-09T03:48:27.124Z,3.58
2024-05-09T03:50:58.122Z,3.78
2024-05-09T03:53:27.073Z,3.08
2024-05-09T03:55:58.463Z,3.35
2024-05-09T03:58:27.416Z,3.00
2024-05-09T04:00:58.498Z,3.10
2024-05-09T04:03:27.677Z,3.13
2024-05-09T04:05:59.082Z,3.25
2024-05-09T04:08:27.885Z,3.40
2024-05-09T04:10:59.107Z,3.00
2024-05-09T04:13:28.227Z,3.28
2024-05-09T04:15:59.183Z,3.00
2024-05-09T04:18:28.418Z,3.10
2024-05-09T04:20:59.664Z,2.92
2024-05-09T04:23:28.638Z,2.50
2024-05-09T04:25:59.713Z,3.45
2024-05-09T04:28:28.543Z,3.03
2024-05-09T04:30:59.428Z,2.83
2024-05-09T04:33:28.592Z,2.88
2024-05-09T04:35:59.671Z,3.00
2024-05-09T04:38:30.362Z,3.33
2024-05-09T04:41:02.166Z,3.28
2024-05-09T04:43:31.078Z,3.08
2024-05-09T04:46:02.243Z,2.83
2024-05-09T04:48:31.366Z,3.10
2024-05-09T04:51:05.455Z,2.78
2024-05-09T04:53:34.422Z,2.90
2024-05-09T04:56:05.520Z,2.80
2024-05-09T04:58:34.302Z,3.00
2024-05-09T05:01:05.285Z,3.28
2024-05-09T05:03:34.298Z,2.90
2024-05-09T05:06:05.614Z,2.55
2024-05-09T05:08:35.661Z,2.83
2024-05-09T05:11:06.648Z,2.88
2024-05-09T05:13:39.434Z,2.95
2024-05-09T05:16:12.010Z,2.88
2024-05-09T05:18:41.289Z,2.85
2024-05-09T05:21:12.495Z,2.67
2024-05-09T05:23:41.743Z,2.75
2024-05-09T05:26:16.296Z,2.97
2024-05-09T05:28:45.254Z,2.92
2024-05-09T05:31:17.986Z,3.13
2024-05-09T05:33:49.329Z,2.85
2024-05-09T05:36:20.807Z,2.60
2024-05-09T05:38:49.745Z,2.58
2024-05-09T05:41:20.816Z,2.50
2024-05-09T05:43:49.843Z,2.40
2024-05-09T05:46:20.929Z,2.65
2024-05-09T05:48:49.932Z,2.25
2024-05-09T05:51:21.090Z,3.03
2024-05-09T05:53:50.257Z,2.40
2024-05-09T05:56:21.808Z,2.25
2024-05-09T05:58:51.635Z,3.40
2024-05-09T06:01:22.699Z,2.30
2024-05-09T06:03:51.755Z,2.80
2024-05-09T06:06:22.855Z,2.50
2024-05-09T06:08:52.762Z,2.17
2024-05-09T06:11:24.076Z,2.22
2024-05-09T06:13:53.295Z,2.38
2024-05-09T06:16:24.448Z,2.40
2024-05-09T06:18:53.866Z,2.42
2024-05-09T06:21:25.034Z,2.30
2024-05-09T06:23:55.143Z,2.28
2024-05-09T06:26:26.143Z,2.78
2024-05-09T06:28:55.490Z,2.30
2024-05-09T06:31:27.571Z,2.10
2024-05-09T06:33:57.352Z,2.40
2024-05-09T06:36:28.393Z,2.55
2024-05-09T06:38:57.386Z,2.03
2024-05-09T06:41:28.526Z,2.10
2024-05-09T06:43:58.285Z,2.08
2024-05-09T06:46:29.966Z,2.15
2024-05-09T06:49:04.583Z,2.30
2024-05-09T06:51:39.082Z,2.20
2024-05-09T06:56:39.775Z,2.10
2024-05-09T06:59:08.743Z,2.03
2024-05-09T07:01:40.110Z,3.38
2024-05-09T07:04:09.106Z,2.10
2024-05-09T07:06:40.328Z,2.03
2024-05-09T07:09:09.170Z,2.20
2024-05-09T07:11:40.543Z,2.30
2024-05-09T07:14:11.000Z,2.75
2024-05-09T07:19:10.617Z,2.13
2024-05-09T07:21:42.102Z,2.28
2024-05-09T07:24:11.215Z,2.10
2024-05-09T07:26:42.177Z,2.20
2024-05-09T07:29:11.569Z,2.17
2024-05-09T07:31:42.612Z,2.30
2024-05-09T07:34:12.142Z,2.03
2024-05-09T07:36:43.264Z,2.40
2024-05-09T07:39:12.186Z,2.42
2024-05-09T07:41:43.386Z,2.40
2024-05-09T07:44:12.218Z,2.47
2024-05-09T07:50:55.840Z,2.20
2024-05-09T07:54:37.723Z,2.55
2024-05-09T07:57:08.962Z,2.53
2024-05-09T07:59:39.492Z,2.80
2024-05-09T08:02:11.102Z,2.55
2024-05-09T08:04:40.367Z,2.50
2024-05-09T08:07:11.582Z,2.40
2024-05-09T08:09:40.512Z,2.50
2024-05-09T08:12:12.942Z,2.17
2024-05-09T08:14:41.856Z,2.22
2024-05-09T08:17:13.371Z,2.40
2024-05-09T08:19:42.351Z,2.40
2024-05-09T08:22:13.558Z,2.50
2024-05-09T08:24:47.005Z,2.60
2024-05-09T08:27:18.327Z,2.50
2024-05-09T08:29:47.240Z,2.45
2024-05-09T08:32:18.286Z,2.80
2024-05-09T08:34:47.295Z,2.50
2024-05-09T08:37:22.418Z,2.58
2024-05-09T08:39:53.574Z,2.30
2024-05-09T08:42:26.578Z,2.30
2024-05-09T08:44:55.441Z,2.33
2024-05-09T08:47:27.369Z,2.53
2024-05-09T08:49:59.254Z,2.50
2024-05-09T08:52:30.434Z,2.75
2024-05-09T08:55:00.951Z,2.55
2024-05-09T08:57:34.107Z,2.47
2024-05-09T09:00:10.306Z,2.60
2024-05-09T09:02:47.554Z,2.50
2024-05-09T09:05:21.477Z,2.60
2024-05-09T09:07:52.530Z,2.65
2024-05-09T09:10:29.598Z,2.72
2024-05-09T09:13:09.902Z,3.10
2024-05-09T09:15:52.173Z,3.35
2024-05-09T09:18:23.309Z,2.90
2024-05-09T09:20:52.465Z,2.50
2024-05-09T09:23:23.617Z,2.67
2024-05-09T09:25:52.602Z,2.58
2024-05-09T09:28:27.098Z,2.22
2024-05-09T09:31:03.368Z,2.83
2024-05-09T09:33:36.321Z,2.50
2024-05-09T09:36:08.402Z,2.65
2024-05-09T09:38:40.813Z,2.47
2024-05-09T09:41:11.042Z,2.45
2024-05-09T09:43:45.983Z,2.50
2024-05-09T09:46:16.084Z,2.80
2024-05-09T09:48:48.100Z,2.50
2024-05-09T09:51:20.141Z,2.60
2024-05-09T09:53:54.278Z,2.70
2024-05-09T09:56:24.643Z,2.35
2024-05-09T09:58:57.916Z,2.60
2024-05-09T10:01:29.974Z,2.60
2024-05-09T10:04:01.723Z,2.60
2024-05-09T10:06:31.521Z,2.67
2024-05-09T10:09:03.177Z,2.45
2024-05-09T10:11:34.892Z,2.80
2024-05-09T10:14:10.108Z,2.45
2024-05-09T10:16:45.327Z,2.70
2024-05-09T10:19:29.902Z,2.50
2024-05-09T10:22:03.944Z,2.60
2024-05-09T10:24:55.132Z,2.60
2024-05-09T10:27:31.041Z,2.60
2024-05-09T10:30:07.007Z,2.42
2024-05-09T10:32:41.801Z,2.60
2024-05-09T10:35:15.234Z,2.65
2024-05-09T10:37:46.409Z,2.72
2024-05-09T10:40:26.582Z,3.05
2024-05-09T10:43:04.499Z,2.20
2024-05-09T10:45:38.763Z,2.85
2024-05-09T10:48:09.325Z,2.80
2024-05-09T10:50:43.970Z,2.67
2024-05-09T10:53:13.209Z,2.50
2024-05-09T10:55:44.157Z,2.28
2024-05-09T10:58:19.399Z,2.30
2024-05-09T11:00:50.721Z,2.45
2024-05-09T11:03:20.129Z,2.38
2024-05-09T11:05:52.137Z,2.95
2024-05-09T11:08:22.717Z,2.83
2024-05-09T11:10:59.679Z,2.60
2024-05-09T11:13:33.351Z,2.28
2024-05-09T11:16:05.201Z,2.20
2024-05-09T11:18:38.182Z,2.63
2024-05-09T11:21:15.968Z,2.30
2024-05-09T11:23:44.916Z,2.40
2024-05-09T11:26:19.514Z,2.22
2024-05-09T11:28:48.492Z,2.15
2024-05-09T11:31:20.268Z,2.03
2024-05-09T11:33:49.686Z,3.00
2024-05-09T11:36:20.826Z,2.28
2024-05-09T11:38:49.736Z,2.45
2024-05-09T11:41:21.906Z,2.28
2024-05-09T11:43:54.071Z,2.05
2024-05-09T11:48:54.616Z,2.22
2024-05-09T11:51:25.845Z,2.42
2024-05-09T11:53:54.736Z,2.42
2024-05-09T11:56:26.153Z,2.40
2024-05-09T11:58:55.155Z,2.10
2024-05-09T12:01:29.469Z,2.40
2024-05-09T12:03:58.760Z,4.32
2024-05-09T12:06:31.810Z,4.25
2024-05-09T12:09:00.727Z,4.40
2024-05-09T12:11:32.250Z,4.18
2024-05-09T12:14:01.365Z,4.20
2024-05-09T12:16:32.694Z,4.60
2024-05-09T12:19:02.257Z,3.80
2024-05-09T12:21:33.579Z,4.50
2024-05-09T12:24:02.574Z,4.05
2024-05-09T12:26:33.863Z,4.18
2024-05-09T12:29:02.764Z,4.15
2024-05-09T12:31:34.004Z,4.60
2024-05-09T12:34:03.219Z,4.10
2024-05-09T12:36:35.201Z,3.83
2024-05-09T12:39:06.429Z,3.72
2024-05-09T12:41:37.498Z,4.10
2024-05-09T12:44:06.532Z,3.60
2024-05-09T12:46:37.770Z,4.20
2024-05-09T12:49:06.982Z,4.10
2024-05-09T12:51:38.471Z,4.00
2024-05-09T12:54:07.281Z,3.80
2024-05-09T12:56:38.327Z,3.60
2024-05-09T12:59:07.054Z,4.20
2024-05-09T13:01:38.253Z,4.15
2024-05-09T13:04:07.233Z,3.92
2024-05-09T13:06:38.375Z,3.60
2024-05-09T13:09:07.406Z,3.50
2024-05-09T13:11:38.940Z,4.20
2024-05-09T13:14:08.191Z,4.20
2024-05-09T13:16:39.361Z,4.50
2024-05-09T13:19:08.540Z,5.03
2024-05-09T13:21:39.966Z,4.40
2024-05-09T13:24:08.865Z,3.90
2024-05-09T13:26:39.901Z,3.80
2024-05-09T13:29:08.744Z,3.95
2024-05-09T13:31:39.754Z,3.60
2024-05-09T13:34:08.654Z,3.85
2024-05-09T13:36:39.950Z,4.28
2024-05-09T13:39:08.759Z,4.35
2024-05-09T13:41:39.901Z,3.67
2024-05-09T13:44:09.812Z,3.53
2024-05-09T13:46:40.987Z,4.88
2024-05-09T13:49:12.533Z,3.70
2024-05-09T13:51:43.835Z,3.67
2024-05-09T13:54:12.687Z,4.05
2024-05-09T13:56:44.812Z,3.80
2024-05-09T13:59:13.694Z,4.00
2024-05-09T14:01:44.810Z,3.67
2024-05-09T14:04:14.229Z,3.80
2024-05-09T14:06:45.545Z,3.70
2024-05-09T14:09:14.450Z,3.70
2024-05-09T14:11:45.895Z,3.90
2024-05-09T14:14:14.881Z,3.72
2024-05-09T14:16:46.625Z,3.25
2024-05-09T14:19:15.788Z,3.40
2024-05-09T14:21:47.018Z,3.40
2024-05-09T14:24:16.506Z,3.83
2024-05-09T14:29:16.351Z,3.85
2024-05-09T14:31:47.489Z,3.67
2024-05-09T14:34:16.614Z,3.67
2024-05-09T14:36:48.129Z,4.10
2024-05-09T14:39:18.864Z,3.40
2024-05-09T14:41:50.003Z,3.67
2024-05-09T14:44:18.805Z,3.65
2024-05-09T14:46:49.828Z,3.55
2024-05-09T14:49:19.089Z,3.38
2024-05-09T14:51:51.527Z,3.08
2024-05-09T14:54:20.415Z,3.55
2024-05-09T14:56:51.644Z,2.83
2024-05-09T14:59:20.915Z,2.70
2024-05-09T15:01:52.659Z,3.33
2024-05-09T15:04:22.062Z,2.78
2024-05-09T15:06:53.266Z,3.50
2024-05-09T15:09:22.770Z,3.25
2024-05-09T15:11:54.863Z,3.08
2024-05-09T15:14:24.862Z,3.28
2024-05-09T15:16:57.216Z,3.30
2024-05-09T15:19:26.366Z,3.50
2024-05-09T15:21:57.588Z,3.35
2024-05-09T15:24:26.500Z,3.08
2024-05-09T15:26:57.577Z,3.42
2024-05-09T15:29:26.422Z,2.90
2024-05-09T15:31:57.483Z,3.20
2024-05-09T15:34:27.036Z,3.15
2024-05-09T15:39:30.272Z,3.22
2024-05-09T15:42:01.434Z,2.70
2024-05-09T15:44:30.475Z,3.03
2024-05-09T15:47:01.578Z,3.35
2024-05-09T15:49:30.604Z,2.95
2024-05-09T15:52:01.880Z,2.75
2024-05-09T15:54:30.868Z,2.75
2024-05-09T15:57:01.896Z,3.15
2024-05-09T15:59:30.699Z,3.20
2024-05-09T16:02:02.336Z,3.53
2024-05-09T16:04:31.569Z,3.35
2024-05-09T16:07:02.877Z,3.15
2024-05-09T16:09:31.842Z,2.90
2024-05-09T16:12:02.866Z,3.35
2024-05-09T16:14:31.915Z,3.22
2024-05-09T16:17:03.026Z,2.72
2024-05-09T16:19:32.054Z,2.97
2024-05-09T16:22:03.156Z,3.95
2024-05-09T16:24:32.146Z,3.28
2024-05-09T16:27:03.388Z,3.22
2024-05-09T16:29:32.326Z,16.77
2024-05-09T16:32:03.523Z,3.45
2024-05-09T16:34:32.421Z,3.58
2024-05-09T16:37:04.917Z,3.45
2024-05-09T16:39:33.954Z,3.10
2024-05-09T16:42:05.300Z,3.13
2024-05-09T16:44:35.596Z,3.00
2024-05-09T16:47:06.909Z,3.30
2024-05-09T16:49:35.923Z,3.50
2024-05-09T16:52:07.054Z,3.20
2024-05-09T16:54:36.088Z,4.07
2024-05-09T16:57:07.485Z,3.00
2024-05-09T16:59:36.583Z,3.13
2024-05-09T17:02:08.061Z,3.10
2024-05-09T17:04:37.173Z,2.30
2024-05-09T17:07:09.492Z,2.72
2024-05-09T17:09:40.001Z,2.53
2024-05-09T17:12:11.507Z,3.33
2024-05-09T17:14:43.622Z,2.80
2024-05-09T17:17:14.986Z,2.55
2024-05-09T17:19:47.593Z,2.80
2024-05-09T17:22:16.503Z,2.40
2024-05-09T17:24:48.196Z,2.50
2024-05-09T17:27:16.876Z,2.80
2024-05-09T17:29:49.468Z,2.33
2024-05-09T17:32:18.097Z,4.30
2024-05-09T17:34:49.681Z,2.92
2024-05-09T17:37:18.572Z,2.83
2024-05-09T17:39:50.299Z,6.25
2024-05-09T17:42:18.732Z,5.25
2024-05-09T17:44:50.212Z,3.15
2024-05-09T17:47:18.589Z,2.42
2024-05-09T17:49:50.215Z,2.22
2024-05-09T17:52:19.004Z,2.20
2024-05-09T17:54:50.597Z,2.70
2024-05-09T17:57:19.458Z,2.70
2024-05-09T17:59:52.146Z,2.60
2024-05-09T18:02:23.552Z,3.40
2024-05-09T18:04:52.822Z,2.88
2024-05-09T18:07:23.946Z,5.00
2024-05-09T18:09:52.907Z,4.10
2024-05-09T18:12:23.903Z,2.90
2024-05-09T18:14:53.009Z,3.95
2024-05-09T18:17:25.849Z,3.15
2024-05-09T18:19:55.048Z,3.05
2024-05-09T18:22:26.587Z,3.05
2024-05-09T18:24:55.547Z,2.90
2024-05-09T18:27:26.979Z,4.28
2024-05-09T18:29:56.084Z,3.85
2024-05-09T18:32:27.403Z,3.40
2024-05-09T18:34:56.455Z,3.28
2024-05-09T18:37:27.805Z,3.10
2024-05-09T18:39:56.930Z,5.75
2024-05-09T18:42:28.321Z,7.45
2024-05-09T18:44:57.231Z,8.25
2024-05-09T18:47:28.819Z,6.88
2024-05-09T18:49:57.911Z,10.73
2024-05-09T18:52:29.121Z,5.57
2024-05-09T18:54:58.312Z,7.03
2024-05-09T18:57:30.256Z,5.13
2024-05-09T18:59:59.256Z,4.85
2024-05-09T19:02:30.705Z,7.75
2024-05-09T19:04:59.829Z,4.60
2024-05-09T19:07:31.380Z,3.40
2024-05-09T19:10:00.335Z,3.42
2024-05-09T19:12:31.908Z,5.13
2024-05-09T19:15:00.780Z,5.13
2024-05-09T19:17:32.734Z,7.97
2024-05-09T19:20:02.010Z,7.53
2024-05-09T19:22:33.371Z,5.18
2024-05-09T19:25:02.451Z,6.38
2024-05-09T19:27:33.760Z,3.75
2024-05-09T19:32:34.149Z,3.30
2024-05-09T19:35:03.310Z,4.85
2024-05-09T19:37:34.503Z,3.95
2024-05-09T19:40:06.867Z,4.20
2024-05-09T19:42:40.340Z,4.03
2024-05-09T19:45:09.624Z,4.38
2024-05-09T19:47:41.512Z,3.08
2024-05-09T19:50:11.227Z,2.95
2024-05-09T19:52:47.205Z,2.60
2024-05-09T19:55:16.567Z,2.38
2024-05-09T19:57:48.237Z,2.50
2024-05-09T20:00:22.266Z,2.60
2024-05-09T20:03:00.978Z,2.67
2024-05-09T20:05:31.320Z,2.92
2024-05-09T20:08:02.650Z,2.88
2024-05-09T20:10:34.203Z,3.25
2024-05-09T20:13:08.410Z,3.08
2024-05-09T20:15:38.347Z,2.50
2024-05-09T20:18:10.271Z,2.85
2024-05-09T20:20:42.507Z,2.88
2024-05-09T20:23:16.206Z,5.57
2024-05-09T20:25:45.187Z,8.27
2024-05-09T20:28:16.676Z,4.65
2024-05-09T20:30:45.620Z,4.95
2024-05-09T20:33:16.960Z,4.47
2024-05-09T20:35:47.331Z,3.70
2024-05-09T20:38:18.643Z,3.20
2024-05-09T20:40:47.741Z,3.03
2024-05-09T20:43:19.254Z,2.40
2024-05-09T20:45:48.329Z,2.75
2024-05-09T20:48:19.923Z,2.50
2024-05-09T20:50:49.555Z,2.83
2024-05-09T20:53:21.544Z,2.83
2024-05-09T20:55:50.472Z,2.30
2024-05-09T20:58:21.805Z,2.70
2024-05-09T21:00:51.002Z,3.00
2024-05-09T21:03:22.733Z,2.65
2024-05-09T21:05:51.811Z,2.50
2024-05-09T21:08:23.847Z,2.38
2024-05-09T21:10:53.110Z,2.83
2024-05-09T21:13:24.478Z,2.75
2024-05-09T21:15:53.743Z,2.75
2024-05-09T21:18:24.887Z,3.00
2024-05-09T21:20:53.988Z,2.60
2024-05-09T21:23:24.993Z,2.28
2024-05-09T21:25:53.826Z,2.72
2024-05-09T21:28:25.158Z,2.20
2024-05-09T21:30:54.582Z,2.17
2024-05-09T21:33:25.714Z,2.88
2024-05-09T21:35:55.610Z,2.58
2024-05-09T21:38:26.951Z,2.42
2024-05-09T21:40:56.240Z,2.33
2024-05-09T21:43:31.632Z,2.50
2024-05-09T21:46:00.646Z,2.90
2024-05-09T21:48:31.783Z,2.20
2024-05-09T21:51:00.718Z,2.65
2024-05-09T21:53:32.351Z,2.67
2024-05-09T21:56:02.091Z,2.08
2024-05-09T21:58:33.244Z,2.40
2024-05-09T22:01:03.826Z,2.72
2024-05-09T22:03:35.529Z,2.72
2024-05-09T22:06:04.986Z,2.30
2024-05-09T22:08:36.066Z,2.50
2024-05-09T22:11:05.420Z,2.53
2024-05-09T22:13:36.569Z,2.70
2024-05-09T22:16:05.886Z,2.35
2024-05-09T22:18:36.994Z,2.55
2024-05-09T22:21:05.845Z,2.38
2024-05-09T22:23:36.812Z,2.53
2024-05-09T22:26:05.739Z,2.60
2024-05-09T22:28:37.021Z,2.35
2024-05-09T22:31:05.899Z,2.35
2024-05-09T22:33:37.284Z,2.90
2024-05-09T22:36:08.735Z,2.33
2024-05-09T22:38:39.807Z,2.47
2024-05-09T22:41:08.718Z,2.40
2024-05-09T22:43:39.928Z,2.50
2024-05-09T22:46:09.201Z,2.50
2024-05-09T22:48:40.384Z,2.60
2024-05-09T22:51:09.234Z,2.15
2024-05-09T22:53:40.270Z,2.42
2024-05-09T22:56:09.054Z,2.45
2024-05-09T22:58:40.055Z,2.30
2024-05-09T23:01:15.596Z,2.40
2024-05-09T23:03:46.885Z,2.60
2024-05-09T23:06:16.202Z,2.28
2024-05-09T23:08:47.277Z,2.40
2024-05-09T23:11:16.399Z,2.40
2024-05-09T23:13:47.410Z,2.10
2024-05-09T23:16:16.340Z,2.30
2024-05-09T23:18:47.432Z,2.35
2024-05-09T23:21:16.337Z,2.38
2024-05-09T23:23:47.195Z,2.50
2024-05-09T23:26:16.024Z,2.28
2024-05-09T23:28:47.078Z,2.63
2024-05-09T23:31:15.939Z,2.30
2024-05-09T23:33:50.242Z,2.22
2024-05-09T23:36:19.365Z,2.42
2024-05-09T23:38:51.656Z,2.70
2024-05-09T23:41:20.640Z,2.60
2024-05-09T23:43:51.624Z,2.72
2024-05-09T23:46:20.533Z,2.50
2024-05-09T23:48:51.644Z,2.20
2024-05-09T23:51:20.911Z,2.90
2024-05-09T23:53:51.904Z,2.80
2024-05-09T23:56:21.717Z,2.08
2024-05-09T23:58:52.717Z,2.63
